Port Hedland International Airport
YPPD : now visible

Airfield :











YOU CAN JOIN US ON...

 
LOGIN :

Register | Disclaimer

   EN    FR    IT 

 









Legend :    VFR   Marginal VFR   IFR   Intensive IFR   Very Intensive IFR
Visi :
Ceiling :
>= 8 km
>= 3000ft
5 to 8 km
1000 to 3000 ft
1500m to 5 km
500 to 1000 ft
800 to 1500m
200 to 500 ft
< 800m
< 200 ft
Symbols :   Thunderstorms  Fog  Heavy snow  Heavy precipitations  Wind > 20 kt






- Airport Elevation : 33 ft
- IATA code : PHE


YPPD - Port Hedland International

CURRENT METAR :
  • 061100Z AUTO 30011KT 9999 // NCD 30/23 Q1008

EXPIRED METARs :
  • 061030Z AUTO 30016KT 9999 // NCD 31/23 Q1008 RF00.0/000.0
  • 061000Z AUTO 30016KT 9999 // NCD 32/21 Q1008
  • 060930Z AUTO 30015KT 9999 // NCD 35/17 Q1007 RF00.0/000.0
  • 060900Z AUTO 29016KT 9999 // NCD 36/15 Q1007
  • 060830Z AUTO 28017KT 9999 // NCD 38/11 Q1007 RF00.0/000.0

TAF TAF YPPD
Valid from the 06 at 06:00 until the 07 at 06:00 UTC


060506Z 0606/0706 31014KT CAVOK
FM061000 30008KT CAVOK
FM070100 31014KT CAVOK



MET'MAP, your aeronautical weather chart ! - Copyright ORBIFLY December 2007 - Disclaimer

ORBIFLY MET'MAP TEAM :

Programming & Development : Alexandra Zaïnal
Concept & original design : Baudouin d'Aumeries
Assistance for programming : Marc-Olivier Méhu
Technical & hardware support : Manuel Goepfert

Contact : metmap@orbifly.com




SOURCES & CREDITS :

   NOAA       Earth
Advisory